createdAt,value
2017-09-29T00:02:22.217Z,5.17
2017-09-29T00:04:48.521Z,6.27
2017-09-29T00:07:14.843Z,5.80
2017-09-29T00:09:41.149Z,6.10
2017-09-29T00:12:07.467Z,5.07
2017-09-29T00:14:33.819Z,6.40
2017-09-29T00:17:00.914Z,5.80
2017-09-29T00:19:27.221Z,6.80
2017-09-29T00:21:53.627Z,6.20
2017-09-29T00:24:21.056Z,5.50
2017-09-29T00:26:47.385Z,6.13
2017-09-29T00:29:13.698Z,5.40
2017-09-29T00:31:40.038Z,5.30
2017-09-29T00:34:06.394Z,6.27
2017-09-29T00:36:32.738Z,5.13
2017-09-29T00:39:00.857Z,6.50
2017-09-29T00:41:27.222Z,5.30
2017-09-29T00:43:53.602Z,5.80
2017-09-29T00:46:20.130Z,6.27
2017-09-29T00:48:46.536Z,5.20
2017-09-29T00:51:14.608Z,5.67
2017-09-29T00:53:41.711Z,5.53
2017-09-29T00:56:08.055Z,6.43
2017-09-29T00:58:34.426Z,5.63
2017-09-29T01:01:00.805Z,5.90
2017-09-29T01:03:27.153Z,6.60
2017-09-29T01:05:53.503Z,6.00
2017-09-29T01:08:20.642Z,6.67
2017-09-29T01:10:47.972Z,6.23
2017-09-29T01:13:14.311Z,6.30
2017-09-29T01:15:40.647Z,6.20
2017-09-29T01:18:07.006Z,6.00
2017-09-29T01:20:35.121Z,5.37
2017-09-29T01:23:01.482Z,6.20
2017-09-29T01:25:27.827Z,6.60
2017-09-29T01:27:54.941Z,6.47
2017-09-29T01:30:21.330Z,6.13
2017-09-29T01:32:47.662Z,6.00
2017-09-29T01:35:14.014Z,6.10
2017-09-29T01:37:42.089Z,6.27
2017-09-29T01:40:08.437Z,6.33
2017-09-29T01:42:34.826Z,7.00
2017-09-29T01:45:16.024Z,6.40
2017-09-29T01:47:42.399Z,7.23
2017-09-29T01:50:08.762Z,6.50
2017-09-29T01:52:35.094Z,5.97
2017-09-29T01:55:01.414Z,5.50
2017-09-29T01:57:28.495Z,5.70
2017-09-29T01:59:54.838Z,5.90
2017-09-29T02:02:21.183Z,5.27
2017-09-29T02:04:47.543Z,6.33
2017-09-29T02:07:14.627Z,5.73
2017-09-29T02:09:40.969Z,6.47
2017-09-29T02:12:07.311Z,5.60
2017-09-29T02:14:33.670Z,5.30
2017-09-29T02:17:00.077Z,5.63
2017-09-29T02:19:27.162Z,5.63
2017-09-29T02:21:54.262Z,6.40
2017-09-29T02:24:20.619Z,5.87
2017-09-29T02:26:47.950Z,5.77
2017-09-29T02:29:14.307Z,6.03
2017-09-29T02:31:40.667Z,5.77
2017-09-29T02:34:08.795Z,5.07
2017-09-29T02:36:35.129Z,5.63
2017-09-29T02:39:01.498Z,5.50
2017-09-29T02:41:28.589Z,6.00
2017-09-29T02:43:55.909Z,6.40
2017-09-29T02:46:22.249Z,4.97
2017-09-29T02:48:48.601Z,5.30
2017-09-29T02:51:15.481Z,5.17
2017-09-29T02:53:41.822Z,5.00
2017-09-29T02:56:08.918Z,5.33
2017-09-29T02:58:38.052Z,5.90
2017-09-29T03:01:09.417Z,5.30
2017-09-29T03:03:39.386Z,6.00
2017-09-29T03:06:08.346Z,5.80
2017-09-29T03:08:34.686Z,5.43
2017-09-29T03:11:01.094Z,5.07
2017-09-29T03:13:28.184Z,6.10
2017-09-29T03:15:54.505Z,5.77
2017-09-29T03:18:20.826Z,5.13
2017-09-29T03:20:47.157Z,5.97
2017-09-29T03:23:13.506Z,5.33
2017-09-29T03:25:39.833Z,5.50
2017-09-29T03:28:06.162Z,5.80
2017-09-29T03:30:32.504Z,5.53
2017-09-29T03:32:58.826Z,5.60
2017-09-29T03:35:25.202Z,6.13
2017-09-29T03:37:52.306Z,5.60
2017-09-29T03:40:18.668Z,5.43
2017-09-29T03:42:45.007Z,5.70
2017-09-29T03:45:11.340Z,6.27
2017-09-29T03:47:37.688Z,5.50
2017-09-29T03:50:09.922Z,5.43
2017-09-29T03:52:40.401Z,5.90
2017-09-29T03:55:12.550Z,5.23
2017-09-29T03:57:44.105Z,5.50
2017-09-29T04:00:10.429Z,6.40
2017-09-29T04:02:37.653Z,5.57
2017-09-29T04:05:03.985Z,5.80
2017-09-29T04:07:30.341Z,5.70
2017-09-29T04:10:01.015Z,6.50
2017-09-29T04:12:28.369Z,6.80
2017-09-29T04:14:54.710Z,5.67
2017-09-29T04:17:21.081Z,6.40
2017-09-29T04:19:48.154Z,6.10
2017-09-29T04:22:15.498Z,6.30
2017-09-29T04:24:41.843Z,5.87
2017-09-29T04:27:08.154Z,5.50
2017-09-29T04:29:34.503Z,5.87
2017-09-29T04:32:00.860Z,6.10
2017-09-29T04:34:27.188Z,6.90
2017-09-29T04:36:53.498Z,6.30
2017-09-29T04:39:20.579Z,6.27
2017-09-29T04:41:46.898Z,6.15
2017-09-29T04:44:13.222Z,6.30
2017-09-29T04:46:39.535Z,7.17
2017-09-29T04:49:05.856Z,6.10
2017-09-29T04:51:32.207Z,7.20
2017-09-29T04:53:58.533Z,5.90
2017-09-29T04:56:24.841Z,5.80
2017-09-29T04:58:51.166Z,6.40
2017-09-29T05:01:17.473Z,5.43
2017-09-29T05:03:43.778Z,5.10
2017-09-29T05:06:10.123Z,6.50
2017-09-29T05:08:36.453Z,6.57
2017-09-29T05:11:02.766Z,6.40
2017-09-29T05:13:29.078Z,5.60
2017-09-29T05:15:55.424Z,5.43
2017-09-29T05:18:21.797Z,6.10
2017-09-29T05:20:48.917Z,6.53
2017-09-29T05:23:15.269Z,5.57
2017-09-29T05:25:42.354Z,5.40
2017-09-29T05:28:09.430Z,6.20
2017-09-29T05:30:35.798Z,5.37
2017-09-29T05:33:02.855Z,5.23
2017-09-29T05:35:29.937Z,4.77
2017-09-29T05:37:56.246Z,4.70
2017-09-29T05:40:22.562Z,4.30
2017-09-29T05:42:49.626Z,4.80
2017-09-29T05:45:15.955Z,4.17
2017-09-29T05:47:43.253Z,4.07
2017-09-29T05:50:09.557Z,5.23
2017-09-29T05:52:35.868Z,4.37
2017-09-29T05:55:02.248Z,4.47
2017-09-29T05:57:28.557Z,4.37
2017-09-29T05:59:54.863Z,4.10
2017-09-29T06:02:21.210Z,4.50
2017-09-29T06:04:48.546Z,4.50
2017-09-29T06:07:14.880Z,4.77
2017-09-29T06:09:41.929Z,4.47
2017-09-29T06:12:08.317Z,4.57
2017-09-29T06:14:34.626Z,4.90
2017-09-29T06:17:00.947Z,4.50
2017-09-29T06:19:27.668Z,4.63
2017-09-29T06:21:53.990Z,4.83
2017-09-29T06:24:20.386Z,4.57
2017-09-29T06:26:47.471Z,4.87
2017-09-29T06:29:13.806Z,5.23
2017-09-29T06:31:40.878Z,5.37
2017-09-29T06:34:07.194Z,4.37
2017-09-29T06:36:33.517Z,4.60
2017-09-29T06:38:59.840Z,3.83
2017-09-29T06:41:27.194Z,4.27
2017-09-29T06:43:54.506Z,4.40
2017-09-29T06:46:21.573Z,3.80
2017-09-29T06:48:47.895Z,4.03
2017-09-29T06:51:14.962Z,4.87
2017-09-29T06:53:41.282Z,4.53
2017-09-29T06:56:07.602Z,4.33
2017-09-29T06:58:34.679Z,4.23
2017-09-29T07:01:00.998Z,4.33
2017-09-29T07:03:27.309Z,4.50
2017-09-29T07:05:54.354Z,4.70
2017-09-29T07:08:20.678Z,4.40
2017-09-29T07:10:47.749Z,4.73
2017-09-29T07:13:14.798Z,4.90
2017-09-29T07:15:41.129Z,4.50
2017-09-29T07:18:07.457Z,3.73
2017-09-29T07:20:34.855Z,4.43
2017-09-29T07:23:01.203Z,3.67
2017-09-29T07:25:33.321Z,4.30
2017-09-29T07:28:02.130Z,4.50
2017-09-29T07:30:38.937Z,3.80
2017-09-29T07:33:05.270Z,4.00
2017-09-29T07:35:32.362Z,4.40
2017-09-29T07:37:58.716Z,4.23
2017-09-29T07:40:25.073Z,3.80
2017-09-29T07:42:51.378Z,4.20
2017-09-29T07:45:17.708Z,4.23
2017-09-29T07:47:44.034Z,4.17
2017-09-29T07:50:10.346Z,4.33
2017-09-29T07:52:37.421Z,4.30
2017-09-29T07:55:03.736Z,4.77
2017-09-29T07:57:30.082Z,4.40
2017-09-29T07:59:57.016Z,4.43
2017-09-29T08:02:23.637Z,5.40
2017-09-29T08:04:49.948Z,5.13
2017-09-29T08:07:16.258Z,4.60
2017-09-29T08:09:43.314Z,5.00
2017-09-29T08:12:09.637Z,4.20
2017-09-29T08:14:37.725Z,4.27
2017-09-29T08:17:04.037Z,4.83
2017-09-29T08:19:32.111Z,4.27
2017-09-29T08:21:59.190Z,3.83
2017-09-29T08:24:26.509Z,4.97
2017-09-29T08:26:53.558Z,4.90
2017-09-29T08:29:20.601Z,4.90
2017-09-29T08:31:47.654Z,4.47
2017-09-29T08:34:14.706Z,4.20
2017-09-29T08:36:41.026Z,4.50
2017-09-29T08:39:08.074Z,5.03
2017-09-29T08:41:35.132Z,4.10
2017-09-29T08:44:01.452Z,4.53
2017-09-29T08:46:28.502Z,4.57
2017-09-29T08:48:55.549Z,3.83
2017-09-29T08:51:22.674Z,4.00
2017-09-29T08:53:49.003Z,4.60
2017-09-29T08:56:15.319Z,3.80
2017-09-29T08:58:41.630Z,4.77
2017-09-29T09:01:07.951Z,4.10
2017-09-29T09:03:34.256Z,4.20
2017-09-29T09:06:00.578Z,4.03
2017-09-29T09:08:27.622Z,4.37
2017-09-29T09:10:55.665Z,4.70
2017-09-29T09:13:21.989Z,4.10
2017-09-29T09:15:48.306Z,4.13
2017-09-29T09:18:14.616Z,4.00
2017-09-29T09:20:40.921Z,4.33
2017-09-29T09:23:08.233Z,4.20
2017-09-29T09:25:34.548Z,4.07
2017-09-29T09:28:00.879Z,4.23
2017-09-29T09:30:27.219Z,4.10
2017-09-29T09:32:53.523Z,4.30
2017-09-29T09:35:19.818Z,3.90
2017-09-29T09:37:46.126Z,3.60
2017-09-29T09:40:12.438Z,3.47
2017-09-29T09:42:38.780Z,4.57
2017-09-29T09:45:05.082Z,4.63
2017-09-29T09:47:31.388Z,4.00
2017-09-29T09:49:57.727Z,3.93
2017-09-29T09:52:24.069Z,3.70
2017-09-29T09:54:50.380Z,4.40
2017-09-29T09:57:16.690Z,4.20
2017-09-29T09:59:42.998Z,4.70
2017-09-29T10:02:10.042Z,3.97
2017-09-29T10:04:37.110Z,3.43
2017-09-29T10:07:04.203Z,3.77
2017-09-29T10:09:30.557Z,3.83
2017-09-29T10:11:56.914Z,3.93
2017-09-29T10:14:23.966Z,4.10
2017-09-29T10:16:50.303Z,3.57
2017-09-29T10:19:17.590Z,4.20
2017-09-29T10:21:43.918Z,5.07
2017-09-29T10:24:10.254Z,4.47
2017-09-29T10:26:36.592Z,4.37
2017-09-29T10:29:02.934Z,4.37
2017-09-29T10:31:29.258Z,4.03
2017-09-29T10:33:55.578Z,3.93
2017-09-29T10:36:21.911Z,4.40
2017-09-29T10:38:48.218Z,4.33
2017-09-29T10:41:15.277Z,4.80
2017-09-29T10:43:41.585Z,4.70
2017-09-29T10:46:07.921Z,4.67
2017-09-29T10:48:34.241Z,4.03
2017-09-29T10:51:00.605Z,4.53
2017-09-29T10:53:26.930Z,5.00
2017-09-29T10:55:53.242Z,4.00
2017-09-29T10:58:19.582Z,4.10
2017-09-29T11:00:45.885Z,4.20
2017-09-29T11:03:12.217Z,4.70
2017-09-29T11:05:38.533Z,4.40
2017-09-29T11:08:06.566Z,4.70
2017-09-29T11:10:33.194Z,4.23
2017-09-29T11:12:59.502Z,4.43
2017-09-29T11:15:25.830Z,4.67
2017-09-29T11:17:52.139Z,5.00
2017-09-29T11:20:18.457Z,4.77
2017-09-29T11:22:45.502Z,4.90
2017-09-29T11:25:13.576Z,5.00
2017-09-29T11:27:40.638Z,5.30
2017-09-29T11:30:07.928Z,6.23
2017-09-29T11:32:34.239Z,5.00
2017-09-29T11:35:00.558Z,6.30
2017-09-29T11:37:27.609Z,5.90
2017-09-29T11:39:53.924Z,6.30
2017-09-29T11:42:20.237Z,6.93
2017-09-29T11:44:47.273Z,7.20
2017-09-29T11:47:14.326Z,6.50
2017-09-29T11:49:41.382Z,5.17
2017-09-29T11:52:08.429Z,6.97
2017-09-29T11:54:36.475Z,6.30
2017-09-29T11:57:02.787Z,6.40
2017-09-29T11:59:29.093Z,7.40
2017-09-29T12:01:55.407Z,7.67
2017-09-29T12:04:21.721Z,7.10
2017-09-29T12:06:48.785Z,6.53
2017-09-29T12:09:15.084Z,6.80
2017-09-29T12:11:42.130Z,6.93
2017-09-29T12:14:09.224Z,6.60
2017-09-29T12:16:35.567Z,6.37
2017-09-29T12:19:01.888Z,7.40
2017-09-29T12:21:28.209Z,7.40
2017-09-29T12:23:54.513Z,7.37
2017-09-29T12:26:20.852Z,7.03
2017-09-29T12:28:47.170Z,7.87
2017-09-29T12:31:15.208Z,6.67
2017-09-29T12:33:41.526Z,6.47
2017-09-29T12:36:07.846Z,7.20
2017-09-29T12:38:35.183Z,6.67
2017-09-29T12:41:01.497Z,7.17
2017-09-29T12:43:27.814Z,7.93
2017-09-29T12:45:54.874Z,7.40
2017-09-29T12:48:21.207Z,7.17
2017-09-29T12:50:47.523Z,6.40
2017-09-29T12:53:13.855Z,7.30
2017-09-29T12:55:40.193Z,8.80
2017-09-29T12:58:06.506Z,7.13
2017-09-29T13:00:33.588Z,7.93
2017-09-29T13:02:59.902Z,7.60
2017-09-29T13:05:26.983Z,7.43
2017-09-29T13:07:53.314Z,8.10
2017-09-29T13:10:19.650Z,8.00
2017-09-29T13:12:45.961Z,8.07
2017-09-29T13:15:12.297Z,9.20
2017-09-29T13:17:38.620Z,8.77
2017-09-29T13:20:05.089Z,8.40
2017-09-29T13:22:31.397Z,8.20
2017-09-29T13:24:57.726Z,9.83
2017-09-29T13:27:24.139Z,9.10
2017-09-29T13:29:50.462Z,9.87
2017-09-29T13:32:16.786Z,8.97
2017-09-29T13:34:43.132Z,9.00
2017-09-29T13:37:09.440Z,8.97
2017-09-29T13:39:35.761Z,9.53
2017-09-29T13:42:02.850Z,9.47
2017-09-29T13:44:29.168Z,9.57
2017-09-29T13:46:55.504Z,8.87
2017-09-29T13:49:21.826Z,9.23
2017-09-29T13:51:48.134Z,10.60
2017-09-29T13:54:14.437Z,9.73
2017-09-29T13:56:40.762Z,9.20
2017-09-29T13:59:07.066Z,9.90
2017-09-29T14:01:34.415Z,9.83
2017-09-29T14:04:01.717Z,8.90
2017-09-29T14:06:28.800Z,11.10
2017-09-29T14:08:55.863Z,9.33
2017-09-29T14:11:22.182Z,10.17
2017-09-29T14:13:48.526Z,10.97
2017-09-29T14:16:14.830Z,9.37
2017-09-29T14:18:41.146Z,9.03
2017-09-29T14:21:07.466Z,8.80
2017-09-29T14:23:34.538Z,9.60
2017-09-29T14:26:00.855Z,10.30
2017-09-29T14:28:27.185Z,10.30
2017-09-29T14:30:53.496Z,10.70
2017-09-29T14:33:20.558Z,10.23
2017-09-29T14:35:46.890Z,10.47
2017-09-29T14:38:13.217Z,10.07
2017-09-29T14:40:40.337Z,10.40
2017-09-29T14:43:06.645Z,9.30
2017-09-29T14:45:32.968Z,11.53
2017-09-29T14:47:59.301Z,10.60
2017-09-29T14:50:25.619Z,10.20
2017-09-29T14:52:51.925Z,10.90
2017-09-29T14:55:18.240Z,11.57
2017-09-29T14:57:45.302Z,10.97
2017-09-29T15:00:11.611Z,11.23
2017-09-29T15:02:38.679Z,12.30
2017-09-29T15:05:05.001Z,11.50
2017-09-29T15:07:31.413Z,11.87
2017-09-29T15:09:58.476Z,12.70
2017-09-29T15:12:24.802Z,12.60
2017-09-29T15:14:51.845Z,12.80
2017-09-29T15:17:18.901Z,12.87
2017-09-29T15:19:45.206Z,13.97
2017-09-29T15:22:11.557Z,13.80
2017-09-29T15:24:38.655Z,13.70
2017-09-29T15:27:04.977Z,13.23
2017-09-29T15:29:31.304Z,11.70
2017-09-29T15:31:57.650Z,12.13
2017-09-29T15:34:23.981Z,11.67
2017-09-29T15:36:50.298Z,11.80
2017-09-29T15:39:17.653Z,12.93
2017-09-29T15:41:43.962Z,10.80
2017-09-29T15:44:11.305Z,11.20
2017-09-29T15:46:37.626Z,11.90
2017-09-29T15:49:03.941Z,11.40
2017-09-29T15:51:32.051Z,10.10
2017-09-29T15:53:58.396Z,14.63
2017-09-29T15:56:24.711Z,13.80
2017-09-29T15:58:51.023Z,13.23
2017-09-29T16:01:17.338Z,12.27
2017-09-29T16:03:44.425Z,10.97
2017-09-29T16:06:10.738Z,9.73
2017-09-29T16:08:37.051Z,10.83
2017-09-29T16:11:04.105Z,10.70
2017-09-29T16:13:30.441Z,10.83
2017-09-29T16:15:56.770Z,9.93
2017-09-29T16:18:23.092Z,9.90
2017-09-29T16:20:50.147Z,8.70
2017-09-29T16:23:16.457Z,8.67
2017-09-29T16:25:43.559Z,10.03
2017-09-29T16:28:09.889Z,9.23
2017-09-29T16:30:36.202Z,8.90
2017-09-29T16:33:02.510Z,10.13
2017-09-29T16:35:28.826Z,9.30
2017-09-29T16:37:55.902Z,9.20
2017-09-29T16:40:22.233Z,9.80
2017-09-29T16:42:48.578Z,10.53
2017-09-29T16:45:14.904Z,10.87
2017-09-29T16:47:41.233Z,10.07
2017-09-29T16:50:07.534Z,10.50
2017-09-29T16:52:33.853Z,10.17
2017-09-29T16:55:00.901Z,10.67
2017-09-29T16:57:27.951Z,10.17
2017-09-29T16:59:54.993Z,10.00
2017-09-29T17:02:22.042Z,10.17
2017-09-29T17:04:49.122Z,10.10
2017-09-29T17:07:15.453Z,9.90
2017-09-29T17:09:41.779Z,11.50
2017-09-29T17:12:08.089Z,12.50
2017-09-29T17:14:34.411Z,16.70
2017-09-29T17:17:01.474Z,20.37
2017-09-29T17:19:27.794Z,18.57
2017-09-29T17:21:54.297Z,39.90
2017-09-29T17:24:20.658Z,30.03
2017-09-29T17:26:47.705Z,20.33
2017-09-29T17:29:15.765Z,15.27
2017-09-29T17:31:42.829Z,13.27
2017-09-29T17:34:09.150Z,10.60
2017-09-29T17:36:36.199Z,11.50
2017-09-29T17:39:03.317Z,11.93
2017-09-29T17:41:30.630Z,13.27
2017-09-29T17:43:56.929Z,12.87
2017-09-29T17:46:24.009Z,11.60
2017-09-29T17:48:50.342Z,11.70
2017-09-29T17:51:16.681Z,10.27
2017-09-29T17:53:42.981Z,33.63
2017-09-29T17:56:09.301Z,15.07
2017-09-29T17:58:35.633Z,12.10
2017-09-29T18:01:01.953Z,13.20
2017-09-29T18:03:29.010Z,14.33
2017-09-29T18:05:55.331Z,14.20
2017-09-29T18:08:22.398Z,12.67
2017-09-29T18:10:48.786Z,12.30
2017-09-29T18:13:15.094Z,26.97
2017-09-29T18:15:41.413Z,14.70
2017-09-29T18:18:09.571Z,13.83
2017-09-29T18:20:35.903Z,36.40
2017-09-29T18:23:02.223Z,16.70
2017-09-29T18:25:28.546Z,14.60
2017-09-29T18:27:54.849Z,51.23
2017-09-29T18:30:21.902Z,19.87
2017-09-29T18:32:50.006Z,15.07
2017-09-29T18:35:16.324Z,19.13
2017-09-29T18:37:42.641Z,13.87
2017-09-29T18:40:09.733Z,13.83
2017-09-29T18:42:36.087Z,11.90
2017-09-29T18:45:03.303Z,12.87
2017-09-29T18:47:29.653Z,12.10
2017-09-29T18:49:55.955Z,12.80
2017-09-29T18:52:22.265Z,12.43
2017-09-29T18:54:48.598Z,12.23
2017-09-29T18:57:14.949Z,12.90
2017-09-29T18:59:41.297Z,12.77
2017-09-29T19:02:07.634Z,15.37
2017-09-29T19:04:33.959Z,15.87
2017-09-29T19:07:00.266Z,17.23
2017-09-29T19:09:27.622Z,17.40
2017-09-29T19:11:53.945Z,16.47
2017-09-29T19:14:20.254Z,15.63
2017-09-29T19:16:47.304Z,15.70
2017-09-29T19:19:14.346Z,15.53
2017-09-29T19:21:42.425Z,24.57
2017-09-29T19:24:08.763Z,20.27
2017-09-29T19:26:35.088Z,47.17
2017-09-29T19:29:01.405Z,33.03
2017-09-29T19:31:28.458Z,16.60
2017-09-29T19:33:56.525Z,14.90
2017-09-29T19:36:24.558Z,17.53
2017-09-29T19:38:50.914Z,15.53
2017-09-29T19:41:17.973Z,20.30
2017-09-29T19:43:45.022Z,13.07
2017-09-29T19:46:12.078Z,12.67
2017-09-29T19:48:38.478Z,11.73
2017-09-29T19:51:04.802Z,12.30
2017-09-29T19:53:31.126Z,16.97
2017-09-29T19:55:57.442Z,14.70
2017-09-29T19:58:23.767Z,15.40
2017-09-29T20:00:50.087Z,15.77
2017-09-29T20:03:16.409Z,31.10
2017-09-29T20:05:42.723Z,20.53
2017-09-29T20:08:09.046Z,24.60
2017-09-29T20:10:35.362Z,16.13
2017-09-29T20:13:02.410Z,18.70
2017-09-29T20:15:29.482Z,16.93
2017-09-29T20:17:55.804Z,26.20
2017-09-29T20:20:22.121Z,19.90
2017-09-29T20:22:48.430Z,25.40
2017-09-29T20:25:14.743Z,16.13
2017-09-29T20:27:42.049Z,16.30
2017-09-29T20:30:08.354Z,15.40
2017-09-29T20:32:35.429Z,16.00
2017-09-29T20:35:01.740Z,17.87
2017-09-29T20:37:29.817Z,17.00
2017-09-29T20:39:56.142Z,18.47
2017-09-29T20:42:24.196Z,20.27
2017-09-29T20:44:51.253Z,17.50
2017-09-29T20:47:18.319Z,18.00
2017-09-29T20:49:44.646Z,19.03
2017-09-29T20:52:10.966Z,19.00
2017-09-29T20:54:38.106Z,16.90
2017-09-29T20:57:05.173Z,24.03
2017-09-29T20:59:31.493Z,24.13
2017-09-29T21:01:58.553Z,19.27
2017-09-29T21:04:24.865Z,18.37
2017-09-29T21:06:51.909Z,22.50
2017-09-29T21:09:18.958Z,24.77
2017-09-29T21:11:46.006Z,25.27
2017-09-29T21:14:13.065Z,25.93
2017-09-29T21:16:39.381Z,26.10
2017-09-29T21:19:06.426Z,23.60
2017-09-29T21:21:33.478Z,23.90
2017-09-29T21:24:00.550Z,25.23
2017-09-29T21:26:26.957Z,26.40
2017-09-29T21:28:54.041Z,23.30
2017-09-29T21:31:20.399Z,26.23
2017-09-29T21:33:46.740Z,24.80
2017-09-29T21:36:13.040Z,26.90
2017-09-29T21:38:40.347Z,25.33
2017-09-29T21:41:07.427Z,26.53
2017-09-29T21:43:33.734Z,27.47
2017-09-29T21:46:00.030Z,28.27
2017-09-29T21:48:26.394Z,28.43
2017-09-29T21:50:53.439Z,28.10
2017-09-29T21:53:20.485Z,28.70
2017-09-29T21:55:47.562Z,30.60
2017-09-29T21:58:13.898Z,30.17
2017-09-29T22:00:41.318Z,29.10
2017-09-29T22:03:07.865Z,27.43
2017-09-29T22:05:34.225Z,26.80
2017-09-29T22:08:01.566Z,26.57
2017-09-29T22:10:27.868Z,28.40
2017-09-29T22:12:54.915Z,26.50
2017-09-29T22:15:21.246Z,27.20
2017-09-29T22:17:48.283Z,29.27
2017-09-29T22:20:15.322Z,28.40
2017-09-29T22:22:42.374Z,29.17
2017-09-29T22:25:09.442Z,30.50
2017-09-29T22:27:35.761Z,32.03
2017-09-29T22:30:02.819Z,32.70
2017-09-29T22:32:29.148Z,31.53
2017-09-29T22:34:56.477Z,32.53
2017-09-29T22:37:23.578Z,30.93
2017-09-29T22:39:49.889Z,34.70
2017-09-29T22:42:17.250Z,34.20
2017-09-29T22:44:43.571Z,34.80
2017-09-29T22:47:09.885Z,37.40
2017-09-29T22:49:36.929Z,36.37
2017-09-29T22:52:04.003Z,34.30
2017-09-29T22:54:30.322Z,36.23
2017-09-29T22:56:56.649Z,35.13
2017-09-29T22:59:22.967Z,37.97
2017-09-29T23:01:50.014Z,36.67
2017-09-29T23:04:17.099Z,36.80
2017-09-29T23:06:43.433Z,37.97
2017-09-29T23:09:09.738Z,36.27
2017-09-29T23:11:36.086Z,36.60
2017-09-29T23:14:02.412Z,35.23
2017-09-29T23:16:28.840Z,34.57
2017-09-29T23:18:55.457Z,33.53
2017-09-29T23:21:21.773Z,34.53
2017-09-29T23:23:48.830Z,35.80
2017-09-29T23:26:15.133Z,34.43
2017-09-29T23:28:41.434Z,34.70
2017-09-29T23:31:07.765Z,33.63
2017-09-29T23:33:34.071Z,33.90
2017-09-29T23:36:00.397Z,30.33
2017-09-29T23:38:26.717Z,30.47
2017-09-29T23:40:54.035Z,30.20
2017-09-29T23:43:20.338Z,28.60
2017-09-29T23:45:46.640Z,26.70
2017-09-29T23:48:12.965Z,25.97
2017-09-29T23:50:39.282Z,27.03
2017-09-29T23:53:05.609Z,26.67
2017-09-29T23:55:32.657Z,26.83
2017-09-29T23:57:59.704Z,26.93
